sensor_id;sensor_type;location;lat;lon;timestamp;temperature;humidity
11107;DHT22;5607;48.302;14.294;2023-05-10T00:02:02;14.10;99.90
11107;DHT22;5607;48.302;14.294;2023-05-10T00:04:49;14.10;99.90
11107;DHT22;5607;48.302;14.294;2023-05-10T00:07:35;14.10;99.90
11107;DHT22;5607;48.302;14.294;2023-05-10T00:10:22;14.10;99.90
11107;DHT22;5607;48.302;14.294;2023-05-10T00:13:11;14.10;99.90
11107;DHT22;5607;48.302;14.294;2023-05-10T00:15:57;14.00;99.90
11107;DHT22;5607;48.302;14.294;2023-05-10T00:18:43;14.00;99.90
11107;DHT22;5607;48.302;14.294;2023-05-10T00:21:29;14.00;99.90
11107;DHT22;5607;48.302;14.294;2023-05-10T00:24:16;14.00;99.90
11107;DHT22;5607;48.302;14.294;2023-05-10T00:27:02;14.00;99.90
11107;DHT22;5607;48.302;14.294;2023-05-10T00:29:50;13.90;99.90
11107;DHT22;5607;48.302;14.294;2023-05-10T00:32:36;13.90;99.90
11107;DHT22;5607;48.302;14.294;2023-05-10T00:35:22;13.80;99.90
11107;DHT22;5607;48.302;14.294;2023-05-10T00:38:08;13.80;99.90
11107;DHT22;5607;48.302;14.294;2023-05-10T00:40:55;13.90;99.90
11107;DHT22;5607;48.302;14.294;2023-05-10T00:43:41;13.90;99.90
11107;DHT22;5607;48.302;14.294;2023-05-10T00:46:27;13.90;99.90
11107;DHT22;5607;48.302;14.294;2023-05-10T00:49:14;13.90;99.90
11107;DHT22;5607;48.302;14.294;2023-05-10T00:52:01;13.90;99.90
11107;DHT22;5607;48.302;14.294;2023-05-10T00:54:48;13.90;99.90
11107;DHT22;5607;48.302;14.294;2023-05-10T00:57:34;13.80;99.90
11107;DHT22;5607;48.302;14.294;2023-05-10T01:00:21;13.90;99.90
11107;DHT22;5607;48.302;14.294;2023-05-10T01:03:17;13.90;99.90
11107;DHT22;5607;48.302;14.294;2023-05-10T01:06:03;13.90;99.90
11107;DHT22;5607;48.302;14.294;2023-05-10T01:08:49;13.90;99.90
11107;DHT22;5607;48.302;14.294;2023-05-10T01:11:36;13.90;99.90
11107;DHT22;5607;48.302;14.294;2023-05-10T01:14:23;14.00;99.90
11107;DHT22;5607;48.302;14.294;2023-05-10T01:17:10;14.00;99.90
11107;DHT22;5607;48.302;14.294;2023-05-10T01:19:58;13.90;99.90
11107;DHT22;5607;48.302;14.294;2023-05-10T01:34:20;14.00;99.90
11107;DHT22;5607;48.302;14.294;2023-05-10T01:37:10;14.00;99.90
11107;DHT22;5607;48.302;14.294;2023-05-10T01:40:17;14.00;99.90
11107;DHT22;5607;48.302;14.294;2023-05-10T01:43:07;14.00;99.90
11107;DHT22;5607;48.302;14.294;2023-05-10T01:46:10;14.20;99.90
11107;DHT22;5607;48.302;14.294;2023-05-10T01:48:58;14.20;99.90
11107;DHT22;5607;48.302;14.294;2023-05-10T01:51:50;14.20;99.90
11107;DHT22;5607;48.302;14.294;2023-05-10T01:54:41;14.20;99.90
11107;DHT22;5607;48.302;14.294;2023-05-10T01:57:31;14.10;99.90
11107;DHT22;5607;48.302;14.294;2023-05-10T02:00:18;14.00;99.90
11107;DHT22;5607;48.302;14.294;2023-05-10T02:03:06;13.90;99.90
11107;DHT22;5607;48.302;14.294;2023-05-10T02:05:53;14.00;99.90
11107;DHT22;5607;48.302;14.294;2023-05-10T02:08:40;13.80;99.90
11107;DHT22;5607;48.302;14.294;2023-05-10T02:11:27;13.80;99.90
11107;DHT22;5607;48.302;14.294;2023-05-10T02:14:14;13.70;99.90
11107;DHT22;5607;48.302;14.294;2023-05-10T02:17:00;13.80;99.90
11107;DHT22;5607;48.302;14.294;2023-05-10T02:19:47;13.70;99.90
11107;DHT22;5607;48.302;14.294;2023-05-10T02:22:34;13.70;99.90
11107;DHT22;5607;48.302;14.294;2023-05-10T02:25:23;13.70;99.90
11107;DHT22;5607;48.302;14.294;2023-05-10T02:28:09;13.70;99.90
11107;DHT22;5607;48.302;14.294;2023-05-10T02:30:56;13.70;99.90
11107;DHT22;5607;48.302;14.294;2023-05-10T02:33:43;13.80;99.90
11107;DHT22;5607;48.302;14.294;2023-05-10T02:36:30;13.80;99.90
11107;DHT22;5607;48.302;14.294;2023-05-10T02:39:17;13.90;99.90
11107;DHT22;5607;48.302;14.294;2023-05-10T02:42:04;13.90;99.90
11107;DHT22;5607;48.302;14.294;2023-05-10T02:44:52;14.00;99.90
11107;DHT22;5607;48.302;14.294;2023-05-10T02:47:39;14.00;99.90
11107;DHT22;5607;48.302;14.294;2023-05-10T02:50:28;14.00;99.90
11107;DHT22;5607;48.302;14.294;2023-05-10T02:53:18;14.00;99.90
11107;DHT22;5607;48.302;14.294;2023-05-10T02:56:10;14.00;99.90
11107;DHT22;5607;48.302;14.294;2023-05-10T02:58:58;13.90;99.90
11107;DHT22;5607;48.302;14.294;2023-05-10T03:01:44;13.90;99.90
11107;DHT22;5607;48.302;14.294;2023-05-10T03:04:30;13.90;99.90
11107;DHT22;5607;48.302;14.294;2023-05-10T03:07:18;13.80;99.90
11107;DHT22;5607;48.302;14.294;2023-05-10T03:10:07;13.90;99.90
11107;DHT22;5607;48.302;14.294;2023-05-10T03:12:56;13.90;99.90
11107;DHT22;5607;48.302;14.294;2023-05-10T03:18:48;13.80;99.90
11107;DHT22;5607;48.302;14.294;2023-05-10T03:21:36;13.90;99.90
11107;DHT22;5607;48.302;14.294;2023-05-10T03:24:24;13.80;99.90
11107;DHT22;5607;48.302;14.294;2023-05-10T03:27:15;13.80;99.90
11107;DHT22;5607;48.302;14.294;2023-05-10T03:30:02;13.80;99.90
11107;DHT22;5607;48.302;14.294;2023-05-10T03:32:50;13.90;99.90
11107;DHT22;5607;48.302;14.294;2023-05-10T03:35:36;13.90;99.90
11107;DHT22;5607;48.302;14.294;2023-05-10T03:38:23;13.90;99.90
11107;DHT22;5607;48.302;14.294;2023-05-10T03:41:09;13.90;99.90
11107;DHT22;5607;48.302;14.294;2023-05-10T03:43:55;14.00;99.90
11107;DHT22;5607;48.302;14.294;2023-05-10T03:46:41;14.00;99.90
11107;DHT22;5607;48.302;14.294;2023-05-10T03:49:27;13.90;99.90
11107;DHT22;5607;48.302;14.294;2023-05-10T03:52:14;13.80;99.90
11107;DHT22;5607;48.302;14.294;2023-05-10T03:55:00;13.80;99.90
11107;DHT22;5607;48.302;14.294;2023-05-10T03:57:48;13.70;99.90
11107;DHT22;5607;48.302;14.294;2023-05-10T04:00:35;13.70;99.90
11107;DHT22;5607;48.302;14.294;2023-05-10T04:03:21;13.70;99.90
11107;DHT22;5607;48.302;14.294;2023-05-10T04:06:09;13.80;99.90
11107;DHT22;5607;48.302;14.294;2023-05-10T04:08:57;13.80;99.90
11107;DHT22;5607;48.302;14.294;2023-05-10T04:11:46;13.70;99.90
11107;DHT22;5607;48.302;14.294;2023-05-10T04:14:32;13.70;99.90
11107;DHT22;5607;48.302;14.294;2023-05-10T04:17:19;13.80;99.90
11107;DHT22;5607;48.302;14.294;2023-05-10T04:20:05;13.80;99.90
11107;DHT22;5607;48.302;14.294;2023-05-10T04:22:52;13.90;99.90
11107;DHT22;5607;48.302;14.294;2023-05-10T04:25:38;14.00;99.90
11107;DHT22;5607;48.302;14.294;2023-05-10T04:28:25;14.00;99.90
11107;DHT22;5607;48.302;14.294;2023-05-10T04:31:11;13.90;99.90
11107;DHT22;5607;48.302;14.294;2023-05-10T04:33:58;13.90;99.90
11107;DHT22;5607;48.302;14.294;2023-05-10T04:36:44;13.90;99.90
11107;DHT22;5607;48.302;14.294;2023-05-10T04:39:30;14.00;99.90
11107;DHT22;5607;48.302;14.294;2023-05-10T04:42:16;14.00;99.90
11107;DHT22;5607;48.302;14.294;2023-05-10T04:45:03;14.00;99.90
11107;DHT22;5607;48.302;14.294;2023-05-10T04:47:49;14.00;99.90
11107;DHT22;5607;48.302;14.294;2023-05-10T04:50:35;14.00;99.90
11107;DHT22;5607;48.302;14.294;2023-05-10T04:53:22;14.00;99.90
11107;DHT22;5607;48.302;14.294;2023-05-10T04:56:08;14.00;99.90
11107;DHT22;5607;48.302;14.294;2023-05-10T04:58:55;14.10;99.90
11107;DHT22;5607;48.302;14.294;2023-05-10T05:01:41;14.20;99.90
11107;DHT22;5607;48.302;14.294;2023-05-10T05:04:27;14.40;99.90
11107;DHT22;5607;48.302;14.294;2023-05-10T05:07:13;14.50;99.90
11107;DHT22;5607;48.302;14.294;2023-05-10T05:09:59;14.60;99.90
11107;DHT22;5607;48.302;14.294;2023-05-10T05:12:46;14.60;99.90
11107;DHT22;5607;48.302;14.294;2023-05-10T05:15:32;14.60;99.90
11107;DHT22;5607;48.302;14.294;2023-05-10T05:18:18;14.70;99.90
11107;DHT22;5607;48.302;14.294;2023-05-10T05:21:17;14.70;99.90
11107;DHT22;5607;48.302;14.294;2023-05-10T05:24:04;14.60;99.90
11107;DHT22;5607;48.302;14.294;2023-05-10T05:26:50;14.60;99.90
11107;DHT22;5607;48.302;14.294;2023-05-10T05:29:36;14.60;99.90
11107;DHT22;5607;48.302;14.294;2023-05-10T05:32:23;14.50;99.90
11107;DHT22;5607;48.302;14.294;2023-05-10T05:35:10;14.50;99.90
11107;DHT22;5607;48.302;14.294;2023-05-10T05:37:56;14.50;99.90
11107;DHT22;5607;48.302;14.294;2023-05-10T05:40:45;14.50;99.90
11107;DHT22;5607;48.302;14.294;2023-05-10T05:43:32;14.40;99.90
11107;DHT22;5607;48.302;14.294;2023-05-10T05:46:18;14.50;99.90
11107;DHT22;5607;48.302;14.294;2023-05-10T05:49:04;14.60;99.90
11107;DHT22;5607;48.302;14.294;2023-05-10T05:51:50;14.60;99.90
11107;DHT22;5607;48.302;14.294;2023-05-10T05:54:37;14.70;99.90
11107;DHT22;5607;48.302;14.294;2023-05-10T05:57:23;14.60;99.90
11107;DHT22;5607;48.302;14.294;2023-05-10T06:00:09;14.70;99.90
11107;DHT22;5607;48.302;14.294;2023-05-10T06:02:56;14.70;99.90
11107;DHT22;5607;48.302;14.294;2023-05-10T06:05:43;14.80;99.90
11107;DHT22;5607;48.302;14.294;2023-05-10T06:08:29;14.90;99.90
11107;DHT22;5607;48.302;14.294;2023-05-10T06:11:15;14.90;99.90
11107;DHT22;5607;48.302;14.294;2023-05-10T06:14:02;14.80;99.90
11107;DHT22;5607;48.302;14.294;2023-05-10T06:16:49;14.80;99.90
11107;DHT22;5607;48.302;14.294;2023-05-10T06:19:35;14.90;99.90
11107;DHT22;5607;48.302;14.294;2023-05-10T06:22:22;14.90;99.90
11107;DHT22;5607;48.302;14.294;2023-05-10T06:25:09;14.80;99.90
11107;DHT22;5607;48.302;14.294;2023-05-10T06:27:56;15.00;99.90
11107;DHT22;5607;48.302;14.294;2023-05-10T06:30:43;15.00;99.90
11107;DHT22;5607;48.302;14.294;2023-05-10T06:33:30;15.00;99.90
11107;DHT22;5607;48.302;14.294;2023-05-10T06:36:17;15.10;99.90
11107;DHT22;5607;48.302;14.294;2023-05-10T06:39:03;15.00;99.90
11107;DHT22;5607;48.302;14.294;2023-05-10T06:41:49;15.00;99.90
11107;DHT22;5607;48.302;14.294;2023-05-10T06:44:35;14.90;99.90
11107;DHT22;5607;48.302;14.294;2023-05-10T06:47:22;14.90;99.90
11107;DHT22;5607;48.302;14.294;2023-05-10T06:50:08;14.90;99.90
11107;DHT22;5607;48.302;14.294;2023-05-10T06:52:55;14.90;99.90
11107;DHT22;5607;48.302;14.294;2023-05-10T06:55:41;15.10;99.90
11107;DHT22;5607;48.302;14.294;2023-05-10T06:58:28;15.20;99.90
11107;DHT22;5607;48.302;14.294;2023-05-10T07:01:15;15.20;99.90
11107;DHT22;5607;48.302;14.294;2023-05-10T07:04:01;15.20;99.90
11107;DHT22;5607;48.302;14.294;2023-05-10T07:06:48;15.20;99.90
11107;DHT22;5607;48.302;14.294;2023-05-10T07:09:35;15.10;99.90
11107;DHT22;5607;48.302;14.294;2023-05-10T07:12:23;15.20;99.90
11107;DHT22;5607;48.302;14.294;2023-05-10T07:15:09;15.30;99.90
11107;DHT22;5607;48.302;14.294;2023-05-10T07:17:55;15.40;99.90
11107;DHT22;5607;48.302;14.294;2023-05-10T07:20:42;15.40;99.90
11107;DHT22;5607;48.302;14.294;2023-05-10T07:23:28;15.50;99.90
11107;DHT22;5607;48.302;14.294;2023-05-10T07:26:15;15.50;99.90
11107;DHT22;5607;48.302;14.294;2023-05-10T07:29:01;15.50;99.90
11107;DHT22;5607;48.302;14.294;2023-05-10T07:31:48;15.50;99.90
11107;DHT22;5607;48.302;14.294;2023-05-10T07:34:34;15.50;99.90
11107;DHT22;5607;48.302;14.294;2023-05-10T07:37:20;15.40;99.90
11107;DHT22;5607;48.302;14.294;2023-05-10T07:40:07;15.40;99.90
11107;DHT22;5607;48.302;14.294;2023-05-10T07:42:53;15.40;99.90
11107;DHT22;5607;48.302;14.294;2023-05-10T07:45:40;15.40;99.90
11107;DHT22;5607;48.302;14.294;2023-05-10T07:48:26;15.40;99.90
11107;DHT22;5607;48.302;14.294;2023-05-10T07:51:12;15.40;99.90
11107;DHT22;5607;48.302;14.294;2023-05-10T07:53:58;15.30;99.90
11107;DHT22;5607;48.302;14.294;2023-05-10T07:56:45;15.30;99.90
11107;DHT22;5607;48.302;14.294;2023-05-10T07:59:33;15.40;99.90
11107;DHT22;5607;48.302;14.294;2023-05-10T08:02:19;15.50;99.90
11107;DHT22;5607;48.302;14.294;2023-05-10T08:05:05;15.70;99.90
11107;DHT22;5607;48.302;14.294;2023-05-10T08:07:52;15.80;99.90
11107;DHT22;5607;48.302;14.294;2023-05-10T08:10:38;15.80;99.90
11107;DHT22;5607;48.302;14.294;2023-05-10T08:13:24;15.70;99.90
11107;DHT22;5607;48.302;14.294;2023-05-10T08:16:10;15.60;99.90
11107;DHT22;5607;48.302;14.294;2023-05-10T08:18:57;15.50;99.90
11107;DHT22;5607;48.302;14.294;2023-05-10T08:21:43;15.40;99.90
11107;DHT22;5607;48.302;14.294;2023-05-10T08:24:29;15.10;99.90
11107;DHT22;5607;48.302;14.294;2023-05-10T08:27:15;15.00;99.90
11107;DHT22;5607;48.302;14.294;2023-05-10T08:30:02;15.00;99.90
11107;DHT22;5607;48.302;14.294;2023-05-10T08:32:48;15.00;99.90
11107;DHT22;5607;48.302;14.294;2023-05-10T08:35:34;14.90;99.90
11107;DHT22;5607;48.302;14.294;2023-05-10T08:38:20;14.70;99.90
11107;DHT22;5607;48.302;14.294;2023-05-10T08:41:07;14.50;99.90
11107;DHT22;5607;48.302;14.294;2023-05-10T08:43:53;14.40;99.90
11107;DHT22;5607;48.302;14.294;2023-05-10T08:46:40;14.30;99.90
11107;DHT22;5607;48.302;14.294;2023-05-10T08:49:30;14.10;99.90
11107;DHT22;5607;48.302;14.294;2023-05-10T08:52:18;14.00;99.90
11107;DHT22;5607;48.302;14.294;2023-05-10T08:55:04;13.80;1.00
11107;DHT22;5607;48.302;14.294;2023-05-10T08:57:50;13.70;1.00
11107;DHT22;5607;48.302;14.294;2023-05-10T09:00:37;13.70;1.00
11107;DHT22;5607;48.302;14.294;2023-05-10T09:03:23;13.70;1.00
11107;DHT22;5607;48.302;14.294;2023-05-10T09:06:10;13.70;1.00
11107;DHT22;5607;48.302;14.294;2023-05-10T09:08:57;13.70;1.00
11107;DHT22;5607;48.302;14.294;2023-05-10T09:11:44;13.70;1.00
11107;DHT22;5607;48.302;14.294;2023-05-10T09:14:31;13.80;1.00
11107;DHT22;5607;48.302;14.294;2023-05-10T09:17:22;13.80;1.00
11107;DHT22;5607;48.302;14.294;2023-05-10T09:20:09;13.90;1.00
11107;DHT22;5607;48.302;14.294;2023-05-10T09:22:55;14.20;1.00
11107;DHT22;5607;48.302;14.294;2023-05-10T09:25:43;14.40;1.00
11107;DHT22;5607;48.302;14.294;2023-05-10T09:28:31;14.30;1.00
11107;DHT22;5607;48.302;14.294;2023-05-10T09:31:17;14.30;1.00
11107;DHT22;5607;48.302;14.294;2023-05-10T09:34:04;14.20;1.00
11107;DHT22;5607;48.302;14.294;2023-05-10T09:36:52;14.30;1.00
11107;DHT22;5607;48.302;14.294;2023-05-10T09:39:39;14.30;1.00
11107;DHT22;5607;48.302;14.294;2023-05-10T09:42:27;14.30;1.00
11107;DHT22;5607;48.302;14.294;2023-05-10T09:45:13;14.20;1.00
11107;DHT22;5607;48.302;14.294;2023-05-10T09:48:00;14.20;1.00
11107;DHT22;5607;48.302;14.294;2023-05-10T09:50:47;14.20;1.00
11107;DHT22;5607;48.302;14.294;2023-05-10T09:53:42;14.20;1.00
11107;DHT22;5607;48.302;14.294;2023-05-10T09:56:35;14.30;1.00
11107;DHT22;5607;48.302;14.294;2023-05-10T09:59:21;14.30;1.00
11107;DHT22;5607;48.302;14.294;2023-05-10T10:02:10;14.40;1.00
11107;DHT22;5607;48.302;14.294;2023-05-10T10:04:58;14.60;1.00
11107;DHT22;5607;48.302;14.294;2023-05-10T10:07:46;14.70;1.00
11107;DHT22;5607;48.302;14.294;2023-05-10T10:10:35;14.80;1.00
11107;DHT22;5607;48.302;14.294;2023-05-10T10:13:21;15.00;1.00
11107;DHT22;5607;48.302;14.294;2023-05-10T10:16:08;15.20;1.00
11107;DHT22;5607;48.302;14.294;2023-05-10T10:18:54;15.20;1.00
11107;DHT22;5607;48.302;14.294;2023-05-10T10:21:41;15.30;1.00
11107;DHT22;5607;48.302;14.294;2023-05-10T10:24:27;15.40;1.00
11107;DHT22;5607;48.302;14.294;2023-05-10T10:27:22;15.70;1.00
11107;DHT22;5607;48.302;14.294;2023-05-10T10:30:16;15.70;1.00
11107;DHT22;5607;48.302;14.294;2023-05-10T10:36:11;15.80;1.00
11107;DHT22;5607;48.302;14.294;2023-05-10T10:38:58;15.50;1.00
11107;DHT22;5607;48.302;14.294;2023-05-10T10:41:55;15.50;1.00
11107;DHT22;5607;48.302;14.294;2023-05-10T10:44:41;15.30;1.00
11107;DHT22;5607;48.302;14.294;2023-05-10T10:47:28;15.40;1.00
11107;DHT22;5607;48.302;14.294;2023-05-10T10:50:16;15.60;1.00
11107;DHT22;5607;48.302;14.294;2023-05-10T10:53:10;15.60;1.00
11107;DHT22;5607;48.302;14.294;2023-05-10T10:56:09;15.70;1.00
11107;DHT22;5607;48.302;14.294;2023-05-10T10:58:56;15.50;1.00
11107;DHT22;5607;48.302;14.294;2023-05-10T11:01:45;15.40;1.00
11107;DHT22;5607;48.302;14.294;2023-05-10T11:04:44;15.40;1.00
11107;DHT22;5607;48.302;14.294;2023-05-10T11:07:32;15.50;1.00
11107;DHT22;5607;48.302;14.294;2023-05-10T11:10:22;15.30;1.00
11107;DHT22;5607;48.302;14.294;2023-05-10T11:13:09;15.10;1.00
11107;DHT22;5607;48.302;14.294;2023-05-10T11:15:56;15.20;1.00
11107;DHT22;5607;48.302;14.294;2023-05-10T11:18:52;15.50;1.00
11107;DHT22;5607;48.302;14.294;2023-05-10T11:21:48;15.90;1.00
11107;DHT22;5607;48.302;14.294;2023-05-10T11:24:35;16.00;1.00
11107;DHT22;5607;48.302;14.294;2023-05-10T11:27:21;16.30;1.00
11107;DHT22;5607;48.302;14.294;2023-05-10T11:30:09;16.60;1.00
11107;DHT22;5607;48.302;14.294;2023-05-10T11:32:56;16.80;1.00
11107;DHT22;5607;48.302;14.294;2023-05-10T11:35:42;16.80;1.00
11107;DHT22;5607;48.302;14.294;2023-05-10T11:38:32;16.50;1.00
11107;DHT22;5607;48.302;14.294;2023-05-10T11:41:20;16.30;1.00
11107;DHT22;5607;48.302;14.294;2023-05-10T11:44:09;16.20;1.00
11107;DHT22;5607;48.302;14.294;2023-05-10T11:46:57;16.20;1.00
11107;DHT22;5607;48.302;14.294;2023-05-10T11:49:44;16.10;1.00
11107;DHT22;5607;48.302;14.294;2023-05-10T11:52:35;16.10;1.00
11107;DHT22;5607;48.302;14.294;2023-05-10T11:55:21;16.00;1.00
11107;DHT22;5607;48.302;14.294;2023-05-10T11:58:08;16.00;1.00
11107;DHT22;5607;48.302;14.294;2023-05-10T12:00:54;16.20;1.00
11107;DHT22;5607;48.302;14.294;2023-05-10T12:03:41;16.40;1.00
11107;DHT22;5607;48.302;14.294;2023-05-10T12:06:28;16.40;1.00
11107;DHT22;5607;48.302;14.294;2023-05-10T12:09:16;16.50;1.00
11107;DHT22;5607;48.302;14.294;2023-05-10T12:12:02;16.40;1.00
11107;DHT22;5607;48.302;14.294;2023-05-10T12:14:50;16.30;1.00
11107;DHT22;5607;48.302;14.294;2023-05-10T12:17:37;16.20;1.00
11107;DHT22;5607;48.302;14.294;2023-05-10T12:20:23;16.30;1.00
11107;DHT22;5607;48.302;14.294;2023-05-10T12:23:11;16.50;1.00
11107;DHT22;5607;48.302;14.294;2023-05-10T12:26:02;16.60;1.00
11107;DHT22;5607;48.302;14.294;2023-05-10T12:28:50;16.70;1.00
11107;DHT22;5607;48.302;14.294;2023-05-10T12:31:57;16.70;1.00
11107;DHT22;5607;48.302;14.294;2023-05-10T12:34:42;16.50;1.00
11107;DHT22;5607;48.302;14.294;2023-05-10T12:37:32;16.40;1.00
11107;DHT22;5607;48.302;14.294;2023-05-10T12:40:21;16.40;1.00
11107;DHT22;5607;48.302;14.294;2023-05-10T12:43:08;16.40;1.00
11107;DHT22;5607;48.302;14.294;2023-05-10T12:45:54;16.40;1.00
11107;DHT22;5607;48.302;14.294;2023-05-10T12:48:41;16.30;1.00
11107;DHT22;5607;48.302;14.294;2023-05-10T12:51:27;16.30;1.00
11107;DHT22;5607;48.302;14.294;2023-05-10T12:54:14;16.30;1.00
11107;DHT22;5607;48.302;14.294;2023-05-10T12:57:00;16.40;1.00
11107;DHT22;5607;48.302;14.294;2023-05-10T12:59:46;16.40;1.00
11107;DHT22;5607;48.302;14.294;2023-05-10T13:02:33;16.40;1.00
11107;DHT22;5607;48.302;14.294;2023-05-10T13:05:19;16.20;1.00
11107;DHT22;5607;48.302;14.294;2023-05-10T13:08:05;16.20;1.00
11107;DHT22;5607;48.302;14.294;2023-05-10T13:10:51;16.30;1.00
11107;DHT22;5607;48.302;14.294;2023-05-10T13:13:38;16.20;1.00
11107;DHT22;5607;48.302;14.294;2023-05-10T13:16:24;16.20;1.00
11107;DHT22;5607;48.302;14.294;2023-05-10T13:19:10;16.10;1.00
11107;DHT22;5607;48.302;14.294;2023-05-10T13:21:57;16.20;1.00
11107;DHT22;5607;48.302;14.294;2023-05-10T13:24:43;16.50;1.00
11107;DHT22;5607;48.302;14.294;2023-05-10T13:27:30;16.50;1.00
11107;DHT22;5607;48.302;14.294;2023-05-10T13:30:17;16.50;1.00
11107;DHT22;5607;48.302;14.294;2023-05-10T13:33:03;16.50;1.00
11107;DHT22;5607;48.302;14.294;2023-05-10T13:35:49;16.30;1.00
11107;DHT22;5607;48.302;14.294;2023-05-10T13:38:36;16.20;1.00
11107;DHT22;5607;48.302;14.294;2023-05-10T13:41:22;16.10;2.60
11107;DHT22;5607;48.302;14.294;2023-05-10T13:44:11;16.20;1.00
11107;DHT22;5607;48.302;14.294;2023-05-10T13:46:58;16.20;15.10
11107;DHT22;5607;48.302;14.294;2023-05-10T13:49:44;16.20;19.10
11107;DHT22;5607;48.302;14.294;2023-05-10T13:52:30;16.30;14.20
11107;DHT22;5607;48.302;14.294;2023-05-10T13:55:16;16.40;14.50
11107;DHT22;5607;48.302;14.294;2023-05-10T13:58:03;16.40;15.90
11107;DHT22;5607;48.302;14.294;2023-05-10T14:00:49;16.40;18.90
11107;DHT22;5607;48.302;14.294;2023-05-10T14:03:35;16.50;15.90
11107;DHT22;5607;48.302;14.294;2023-05-10T14:06:21;16.50;9.50
11107;DHT22;5607;48.302;14.294;2023-05-10T14:09:08;16.60;9.50
11107;DHT22;5607;48.302;14.294;2023-05-10T14:11:54;16.80;1.00
11107;DHT22;5607;48.302;14.294;2023-05-10T14:14:41;17.00;1.00
11107;DHT22;5607;48.302;14.294;2023-05-10T14:17:29;17.20;1.00
11107;DHT22;5607;48.302;14.294;2023-05-10T14:20:17;17.20;1.00
11107;DHT22;5607;48.302;14.294;2023-05-10T14:23:03;17.20;1.00
11107;DHT22;5607;48.302;14.294;2023-05-10T14:25:50;17.20;1.00
11107;DHT22;5607;48.302;14.294;2023-05-10T14:28:37;17.10;1.00
11107;DHT22;5607;48.302;14.294;2023-05-10T14:31:23;17.00;1.00
11107;DHT22;5607;48.302;14.294;2023-05-10T14:34:11;16.80;1.00
11107;DHT22;5607;48.302;14.294;2023-05-10T14:36:57;16.60;12.10
11107;DHT22;5607;48.302;14.294;2023-05-10T14:39:45;16.40;34.40
11107;DHT22;5607;48.302;14.294;2023-05-10T14:42:31;16.30;49.40
11107;DHT22;5607;48.302;14.294;2023-05-10T14:45:18;16.30;63.80
11107;DHT22;5607;48.302;14.294;2023-05-10T14:48:04;16.20;82.50
11107;DHT22;5607;48.302;14.294;2023-05-10T14:50:51;16.20;99.90
11107;DHT22;5607;48.302;14.294;2023-05-10T14:53:38;16.20;99.90
11107;DHT22;5607;48.302;14.294;2023-05-10T14:56:25;16.20;99.90
11107;DHT22;5607;48.302;14.294;2023-05-10T14:59:12;16.20;99.90
11107;DHT22;5607;48.302;14.294;2023-05-10T15:01:58;16.10;99.90
11107;DHT22;5607;48.302;14.294;2023-05-10T15:04:44;16.20;99.90
11107;DHT22;5607;48.302;14.294;2023-05-10T15:07:31;16.30;99.90
11107;DHT22;5607;48.302;14.294;2023-05-10T15:10:18;16.40;99.90
11107;DHT22;5607;48.302;14.294;2023-05-10T15:13:04;17.20;39.30
11107;DHT22;5607;48.302;14.294;2023-05-10T15:15:51;18.40;1.00
11107;DHT22;5607;48.302;14.294;2023-05-10T15:18:37;18.80;1.00
11107;DHT22;5607;48.302;14.294;2023-05-10T15:21:23;18.70;1.00
11107;DHT22;5607;48.302;14.294;2023-05-10T15:24:09;18.30;1.00
11107;DHT22;5607;48.302;14.294;2023-05-10T15:26:56;18.00;1.00
11107;DHT22;5607;48.302;14.294;2023-05-10T15:29:42;17.90;1.00
11107;DHT22;5607;48.302;14.294;2023-05-10T15:32:28;17.80;1.00
11107;DHT22;5607;48.302;14.294;2023-05-10T15:35:15;17.70;1.00
11107;DHT22;5607;48.302;14.294;2023-05-10T15:38:01;17.60;1.00
11107;DHT22;5607;48.302;14.294;2023-05-10T15:40:47;17.60;1.00
11107;DHT22;5607;48.302;14.294;2023-05-10T15:43:34;17.60;1.00
11107;DHT22;5607;48.302;14.294;2023-05-10T15:46:20;17.50;1.00
11107;DHT22;5607;48.302;14.294;2023-05-10T15:49:06;17.50;1.00
11107;DHT22;5607;48.302;14.294;2023-05-10T15:51:52;17.50;1.00
11107;DHT22;5607;48.302;14.294;2023-05-10T15:54:40;17.40;1.00
11107;DHT22;5607;48.302;14.294;2023-05-10T15:57:26;17.40;1.00
11107;DHT22;5607;48.302;14.294;2023-05-10T16:00:12;17.30;1.00
11107;DHT22;5607;48.302;14.294;2023-05-10T16:02:59;17.10;1.00
11107;DHT22;5607;48.302;14.294;2023-05-10T16:05:45;17.00;1.00
11107;DHT22;5607;48.302;14.294;2023-05-10T16:08:32;17.00;1.00
11107;DHT22;5607;48.302;14.294;2023-05-10T16:11:20;17.00;1.00
11107;DHT22;5607;48.302;14.294;2023-05-10T16:14:07;17.00;1.00
11107;DHT22;5607;48.302;14.294;2023-05-10T16:16:53;16.90;1.00
11107;DHT22;5607;48.302;14.294;2023-05-10T16:19:39;16.90;1.00
11107;DHT22;5607;48.302;14.294;2023-05-10T16:22:26;16.90;1.00
11107;DHT22;5607;48.302;14.294;2023-05-10T16:25:13;16.90;1.00
11107;DHT22;5607;48.302;14.294;2023-05-10T16:27:59;16.90;1.00
11107;DHT22;5607;48.302;14.294;2023-05-10T16:30:46;16.90;1.00
11107;DHT22;5607;48.302;14.294;2023-05-10T16:33:33;16.80;1.00
11107;DHT22;5607;48.302;14.294;2023-05-10T16:36:20;16.80;1.00
11107;DHT22;5607;48.302;14.294;2023-05-10T16:39:06;16.80;1.00
11107;DHT22;5607;48.302;14.294;2023-05-10T16:41:54;16.90;1.00
11107;DHT22;5607;48.302;14.294;2023-05-10T16:44:40;16.90;1.00
11107;DHT22;5607;48.302;14.294;2023-05-10T16:47:27;17.00;1.00
11107;DHT22;5607;48.302;14.294;2023-05-10T16:50:13;16.90;1.00
11107;DHT22;5607;48.302;14.294;2023-05-10T16:53:00;16.80;1.00
11107;DHT22;5607;48.302;14.294;2023-05-10T16:55:46;16.80;1.00
11107;DHT22;5607;48.302;14.294;2023-05-10T16:58:32;16.80;1.00
11107;DHT22;5607;48.302;14.294;2023-05-10T17:01:19;16.80;1.00
11107;DHT22;5607;48.302;14.294;2023-05-10T17:04:05;16.70;1.00
11107;DHT22;5607;48.302;14.294;2023-05-10T17:06:51;16.70;1.00
11107;DHT22;5607;48.302;14.294;2023-05-10T17:09:38;16.70;1.00
11107;DHT22;5607;48.302;14.294;2023-05-10T17:12:24;16.70;1.00
11107;DHT22;5607;48.302;14.294;2023-05-10T17:15:11;16.70;1.00
11107;DHT22;5607;48.302;14.294;2023-05-10T17:17:57;16.70;1.00
11107;DHT22;5607;48.302;14.294;2023-05-10T17:20:43;16.70;10.50
11107;DHT22;5607;48.302;14.294;2023-05-10T17:23:30;16.60;35.50
11107;DHT22;5607;48.302;14.294;2023-05-10T17:26:16;16.60;40.50
11107;DHT22;5607;48.302;14.294;2023-05-10T17:29:03;16.50;70.10
11107;DHT22;5607;48.302;14.294;2023-05-10T17:31:49;16.40;83.20
11107;DHT22;5607;48.302;14.294;2023-05-10T17:34:35;16.40;86.80
11107;DHT22;5607;48.302;14.294;2023-05-10T17:37:22;16.30;96.40
11107;DHT22;5607;48.302;14.294;2023-05-10T17:40:08;16.30;99.90
11107;DHT22;5607;48.302;14.294;2023-05-10T17:42:56;16.20;99.90
11107;DHT22;5607;48.302;14.294;2023-05-10T17:45:42;16.20;99.90
11107;DHT22;5607;48.302;14.294;2023-05-10T17:48:29;16.20;99.90
11107;DHT22;5607;48.302;14.294;2023-05-10T17:51:16;16.10;99.90
11107;DHT22;5607;48.302;14.294;2023-05-10T17:54:02;16.00;99.90
11107;DHT22;5607;48.302;14.294;2023-05-10T17:56:48;16.00;99.90
11107;DHT22;5607;48.302;14.294;2023-05-10T17:59:34;16.00;99.90
11107;DHT22;5607;48.302;14.294;2023-05-10T18:02:21;16.00;99.90